Time;durP1;ratioP1;P1;durP2;ratioP2;P2;SDS_P1;SDS_P2;PMS_P1;PMS_P2;Temp;Humidity;BMP_temperature;BMP_pressure;BME280_temperature;BME280_humidity;BME280_pressure;Samples;Min_cycle;Max_cycle;Signal;HPM_P1;HPM_P2
2023/03/05 00:01:25;;;;;;;4.32;0.70;;;29.50;84.00;;;;;;5026283;28;20029;-65
2023/03/05 00:03:54;;;;;;;2.30;0.60;;;29.20;81.90;;;;;;5024777;28;20136;-65
2023/03/05 00:06:24;;;;;;;4.00;0.82;;;29.10;82.70;;;;;;5029215;28;20040;-63
2023/03/05 00:08:52;;;;;;;2.40;0.60;;;29.30;80.40;;;;;;5022022;28;20022;-63
2023/03/05 00:11:21;;;;;;;1.77;0.63;;;29.00;80.90;;;;;;5025506;28;20068;-64
2023/03/05 00:13:51;;;;;;;2.33;0.77;;;28.90;84.00;;;;;;5027358;28;20035;-64
2023/03/05 00:16:20;;;;;;;4.28;0.80;;;29.10;79.50;;;;;;5019622;28;20037;-64
2023/03/05 00:18:48;;;;;;;4.68;0.90;;;29.20;87.70;;;;;;5028010;28;20576;-68
2023/03/05 00:21:28;;;;;;;2.42;0.70;;;29.50;82.40;;;;;;5027316;28;20037;-65
2023/03/05 00:23:56;;;;;;;2.47;0.70;;;29.70;84.70;;;;;;5010877;28;20029;-66
2023/03/05 00:26:27;;;;;;;2.75;0.93;;;30.10;78.20;;;;;;5009732;28;20030;-65
2023/03/05 00:28:57;;;;;;;1.70;0.40;;;30.20;78.20;;;;;;5028391;28;20024;-69
2023/03/05 00:31:30;;;;;;;3.70;0.98;;;30.30;77.70;;;;;;5024952;28;20037;-64
2023/03/05 00:34:01;;;;;;;2.60;0.75;;;30.10;73.40;;;;;;5009899;28;20030;-64
2023/03/05 00:36:29;;;;;;;2.80;0.80;;;29.80;80.30;;;;;;5019875;28;20030;-65
2023/03/05 00:38:57;;;;;;;2.33;0.73;;;30.10;79.60;;;;;;5019296;28;20017;-63
2023/03/05 00:41:25;;;;;;;3.58;0.75;;;30.20;76.40;;;;;;5030929;28;20452;-61
2023/03/05 00:43:52;;;;;;;4.95;0.93;;;30.50;78.00;;;;;;5029190;28;20034;-65
2023/03/05 00:46:20;;;;;;;3.17;0.82;;;30.80;76.80;;;;;;5028956;28;20021;-67
2023/03/05 00:48:48;;;;;;;5.30;0.70;;;30.80;71.50;;;;;;5029646;28;20496;-65
2023/03/05 00:51:15;;;;;;;1.83;0.70;;;30.80;70.80;;;;;;5024078;28;20598;-64
2023/03/05 00:53:42;;;;;;;3.22;0.95;;;30.80;72.80;;;;;;5010640;28;20028;-64
2023/03/05 00:56:10;;;;;;;2.45;0.70;;;31.00;72.10;;;;;;5007267;28;20029;-64
2023/03/05 00:58:38;;;;;;;3.28;0.60;;;31.10;70.80;;;;;;5007100;28;20032;-63
2023/03/05 01:01:06;;;;;;;1.48;0.57;;;31.20;70.10;;;;;;5019920;28;20360;-64
2023/03/05 01:03:34;;;;;;;3.83;1.20;;;31.20;65.50;;;;;;5023962;28;20045;-63
2023/03/05 01:06:10;;;;;;;3.30;1.05;;;31.00;66.10;;;;;;5021192;28;20075;-63
2023/03/05 01:08:38;;;;;;;4.38;0.80;;;30.70;65.60;;;;;;5027224;28;20033;-64
2023/03/05 01:11:06;;;;;;;3.58;0.90;;;30.70;67.00;;;;;;5023671;28;20044;-64
2023/03/05 01:13:34;;;;;;;1.90;0.68;;;30.80;62.40;;;;;;5027619;28;20415;-65
2023/03/05 01:16:02;;;;;;;2.00;0.70;;;30.90;67.20;;;;;;5024526;28;20394;-66
2023/03/05 01:18:29;;;;;;;4.72;0.70;;;31.10;66.60;;;;;;5024289;28;20026;-66
2023/03/05 01:20:57;;;;;;;4.38;0.63;;;31.30;65.60;;;;;;5035181;28;20021;-64
2023/03/05 01:23:24;;;;;;;1.80;0.60;;;31.60;64.80;;;;;;5048673;28;20017;-66
2023/03/05 01:25:57;;;;;;;2.17;0.60;;;31.70;65.00;;;;;;5037684;28;20075;-66
2023/03/05 01:28:24;;;;;;;5.47;1.13;;;32.00;65.00;;;;;;5014320;28;20510;-66
2023/03/05 01:30:52;;;;;;;5.45;1.63;;;32.20;66.00;;;;;;5027331;28;20032;-66
2023/03/05 01:33:19;;;;;;;1.63;0.77;;;32.20;60.80;;;;;;5029208;28;20482;-65
2023/03/05 01:35:48;;;;;;;20.05;3.67;;;31.90;62.20;;;;;;5016113;28;20099;-66
2023/03/05 01:38:16;;;;;;;3.53;1.08;;;32.00;63.40;;;;;;5028345;28;21312;-66
2023/03/05 01:40:44;;;;;;;2.83;0.77;;;32.20;65.40;;;;;;5028458;28;20456;-65
2023/03/05 01:43:11;;;;;;;3.80;1.00;;;32.30;64.80;;;;;;5031961;28;20083;-67
2023/03/05 01:46:16;;;;;;;3.08;0.75;;;32.30;64.00;;;;;;5025293;28;20100;-66
2023/03/05 01:48:50;;;;;;;2.15;0.70;;;32.40;64.40;;;;;;5013535;28;20079;-66
2023/03/05 01:51:22;;;;;;;2.67;0.50;;;32.30;66.40;;;;;;5024861;28;20021;-66
2023/03/05 01:53:49;;;;;;;0.98;0.50;;;32.40;62.80;;;;;;5017858;28;20030;-65
2023/03/05 01:56:17;;;;;;;3.20;0.80;;;32.60;63.10;;;;;;5022173;28;20057;-67
2023/03/05 01:58:45;;;;;;;7.70;1.25;;;32.50;63.30;;;;;;5013819;28;20101;-66
2023/03/05 02:01:13;;;;;;;3.92;0.93;;;32.30;61.50;;;;;;5024819;28;20068;-66
2023/03/05 02:03:41;;;;;;;3.95;1.00;;;32.40;63.60;;;;;;5025429;28;20391;-66
2023/03/05 02:06:09;;;;;;;5.03;1.23;;;32.40;61.00;;;;;;5026429;28;20034;-65
2023/03/05 02:08:36;;;;;;;5.85;1.15;;;32.40;61.30;;;;;;5029733;28;20040;-66
2023/03/05 02:11:04;;;;;;;20.80;5.00;;;32.60;61.70;;;;;;5026399;28;20455;-66
2023/03/05 02:13:37;;;;;;;9.25;1.83;;;32.80;62.90;;;;;;5024905;28;20113;-64
2023/03/05 02:16:05;;;;;;;2.27;0.80;;;32.80;60.40;;;;;;5025633;28;20029;-63
2023/03/05 02:18:32;;;;;;;1.67;0.47;;;33.00;62.90;;;;;;5024037;28;20288;-64
2023/03/05 02:21:07;;;;;;;1.70;0.60;;;33.10;63.60;;;;;;5024308;28;20132;-64
2023/03/05 02:23:36;;;;;;;2.17;1.10;;;33.20;61.20;;;;;;5025109;28;20080;-68
2023/03/05 02:26:09;;;;;;;1.45;0.50;;;33.40;62.40;;;;;;5020517;28;20048;-67
2023/03/05 02:28:42;;;;;;;2.40;0.60;;;33.40;61.40;;;;;;5017010;28;20028;-66
2023/03/05 02:31:21;;;;;;;1.70;0.52;;;33.20;62.40;;;;;;5021319;28;20037;-65
2023/03/05 02:33:49;;;;;;;1.48;0.50;;;33.30;60.90;;;;;;5022660;28;20745;-64
2023/03/05 02:36:17;;;;;;;1.80;0.50;;;33.40;60.50;;;;;;5030546;28;20498;-64
2023/03/05 02:38:45;;;;;;;12.15;0.98;;;33.60;61.20;;;;;;5024462;28;20029;-66
2023/03/05 02:41:13;;;;;;;2.67;0.60;;;33.40;59.30;;;;;;5026243;28;20100;-66
2023/03/05 02:43:41;;;;;;;2.00;0.77;;;33.50;60.50;;;;;;5026679;28;20033;-68
2023/03/05 02:46:08;;;;;;;2.38;0.90;;;33.50;59.50;;;;;;5029497;28;20021;-68
2023/03/05 02:48:36;;;;;;;1.98;0.70;;;33.60;59.00;;;;;;5028998;28;20562;-69
2023/03/05 02:51:04;;;;;;;1.88;1.10;;;33.60;58.70;;;;;;5029795;28;20030;-70
2023/03/05 02:53:32;;;;;;;1.63;0.63;;;33.80;59.50;;;;;;5030560;28;20035;-69
2023/03/05 02:55:59;;;;;;;4.15;0.80;;;33.90;59.10;;;;;;5029920;28;20456;-71
2023/03/05 02:58:27;;;;;;;1.15;0.60;;;34.00;59.60;;;;;;5031340;28;20028;-69
2023/03/05 03:00:54;;;;;;;5.90;0.80;;;34.00;59.10;;;;;;5027978;28;20544;-68
2023/03/05 03:03:22;;;;;;;1.25;0.68;;;34.00;59.90;;;;;;5030922;28;20518;-71
2023/03/05 03:05:49;;;;;;;3.70;0.85;;;34.00;60.90;;;;;;5031500;28;20038;-72
2023/03/05 03:08:16;;;;;;;3.03;0.80;;;34.10;59.10;;;;;;5031867;28;20085;-71
2023/03/05 03:10:44;;;;;;;5.63;0.90;;;34.10;59.80;;;;;;5030816;28;20065;-71
2023/03/05 03:13:11;;;;;;;2.10;0.70;;;33.90;57.60;;;;;;5031352;28;20108;-71
2023/03/05 03:15:39;;;;;;;5.88;0.98;;;33.30;57.10;;;;;;5030447;28;20095;-69
2023/03/05 03:18:06;;;;;;;2.47;0.90;;;33.10;58.10;;;;;;5021003;28;20513;-71
2023/03/05 03:20:37;;;;;;;2.35;0.70;;;33.20;60.30;;;;;;5027135;28;20029;-72
2023/03/05 03:23:05;;;;;;;4.50;0.73;;;33.10;57.60;;;;;;5030100;28;20026;-71
2023/03/05 03:25:33;;;;;;;3.85;0.80;;;33.00;60.30;;;;;;5030301;28;20049;-71
2023/03/05 03:28:00;;;;;;;1.58;0.70;;;33.20;59.40;;;;;;5029604;28;20022;-71
2023/03/05 03:30:28;;;;;;;1.20;0.45;;;33.20;58.30;;;;;;5027242;28;20033;-71
2023/03/05 03:32:55;;;;;;;5.18;2.15;;;32.80;60.10;;;;;;5022443;28;20029;-71
2023/03/05 03:35:22;;;;;;;5.88;1.35;;;32.90;61.60;;;;;;5030695;28;20021;-72
2023/03/05 03:37:50;;;;;;;5.07;0.98;;;33.20;63.50;;;;;;5032083;28;20108;-71
2023/03/05 03:40:18;;;;;;;2.13;1.00;;;33.70;62.00;;;;;;5025314;28;20474;-71
2023/03/05 03:42:45;;;;;;;20.00;5.65;;;34.00;59.90;;;;;;5030380;28;20108;-71
2023/03/05 03:45:13;;;;;;;9.90;1.77;;;34.20;58.50;;;;;;5026759;28;20033;-69
2023/03/05 03:47:40;;;;;;;3.28;1.08;;;34.10;57.80;;;;;;5029016;28;20025;-71
2023/03/05 03:50:08;;;;;;;3.92;0.80;;;33.80;58.00;;;;;;5025978;28;20071;-73
2023/03/05 03:52:36;;;;;;;5.20;1.50;;;33.50;59.40;;;;;;5029760;28;20090;-72
2023/03/05 03:55:03;;;;;;;1.38;0.73;;;33.50;58.50;;;;;;5029130;28;20378;-72
2023/03/05 03:57:32;;;;;;;2.92;0.77;;;33.30;57.90;;;;;;5029082;28;20029;-65
2023/03/05 04:00:00;;;;;;;1.83;0.68;;;33.30;60.40;;;;;;5032948;28;20033;-65
2023/03/05 04:02:27;;;;;;;3.30;0.90;;;33.40;61.10;;;;;;5029002;28;20025;-64
2023/03/05 04:04:55;;;;;;;7.82;2.17;;;33.30;59.80;;;;;;5026739;28;20050;-63
2023/03/05 04:07:22;;;;;;;16.40;5.38;;;33.60;63.30;;;;;;5029375;28;20032;-64
2023/03/05 04:09:50;;;;;;;19.27;5.68;;;34.10;61.40;;;;;;5029263;28;20044;-65
2023/03/05 04:12:17;;;;;;;4.05;1.23;;;34.50;59.20;;;;;;5030502;28;20033;-63
2023/03/05 04:14:48;;;;;;;2.20;1.30;;;34.70;59.20;;;;;;5038497;28;20022;-63
2023/03/05 04:17:16;;;;;;;2.10;0.88;;;34.90;56.70;;;;;;5020285;28;20030;-63
2023/03/05 04:19:44;;;;;;;4.15;1.13;;;34.30;56.40;;;;;;5024944;28;20059;-63
2023/03/05 04:22:17;;;;;;;4.38;1.45;;;33.80;57.10;;;;;;5022288;28;20036;-63
2023/03/05 04:24:44;;;;;;;19.10;8.65;;;33.30;59.10;;;;;;5023047;28;20207;-64
2023/03/05 04:27:12;;;;;;;5.95;2.80;;;33.10;60.10;;;;;;5027161;28;20113;-64
2023/03/05 04:29:39;;;;;;;3.88;1.33;;;32.90;59.70;;;;;;5026114;28;20515;-63
2023/03/05 04:32:07;;;;;;;3.88;1.00;;;33.00;59.70;;;;;;5024739;28;20036;-65
2023/03/05 04:34:36;;;;;;;4.28;1.27;;;32.80;60.50;;;;;;5023386;28;20450;-64
2023/03/05 04:37:03;;;;;;;2.17;0.98;;;32.60;60.60;;;;;;5027131;28;20032;-63
2023/03/05 04:39:31;;;;;;;4.10;1.13;;;32.50;60.60;;;;;;5029200;28;20025;-63
2023/03/05 04:41:58;;;;;;;3.17;1.33;;;32.60;60.20;;;;;;5029418;28;20014;-62
2023/03/05 04:44:26;;;;;;;2.17;1.23;;;32.60;61.00;;;;;;5025336;28;20133;-62
2023/03/05 04:46:53;;;;;;;4.15;1.23;;;32.80;60.70;;;;;;5029238;28;20026;-64
2023/03/05 04:49:21;;;;;;;3.80;0.93;;;33.20;60.30;;;;;;5029209;28;20089;-63
2023/03/05 04:51:48;;;;;;;1.88;1.10;;;33.00;59.40;;;;;;5026991;28;20067;-63
2023/03/05 04:54:15;;;;;;;2.72;0.80;;;33.10;59.40;;;;;;5026957;28;20575;-64
2023/03/05 04:56:43;;;;;;;5.70;1.30;;;32.90;60.00;;;;;;5026130;28;20101;-63
2023/03/05 04:59:11;;;;;;;2.88;1.10;;;32.90;60.40;;;;;;5022604;28;20057;-63
2023/03/05 05:01:38;;;;;;;4.03;0.90;;;33.00;61.00;;;;;;5019504;28;20060;-63
2023/03/05 05:04:05;;;;;;;2.00;0.70;;;33.10;60.60;;;;;;5022442;28;20049;-64
2023/03/05 05:06:33;;;;;;;3.22;1.10;;;33.20;60.30;;;;;;5028918;28;20044;-63
2023/03/05 05:09:00;;;;;;;2.45;0.98;;;33.30;60.10;;;;;;5028781;28;20108;-63
2023/03/05 05:11:27;;;;;;;2.80;0.93;;;33.50;58.80;;;;;;5028346;28;20032;-64
2023/03/05 05:13:55;;;;;;;5.88;1.30;;;33.40;58.70;;;;;;5013195;28;20026;-64
2023/03/05 05:16:22;;;;;;;1.83;0.90;;;33.60;58.70;;;;;;5009670;28;20083;-63
2023/03/05 05:18:50;;;;;;;3.90;1.10;;;33.50;57.80;;;;;;5018518;28;20034;-64
2023/03/05 05:21:19;;;;;;;1.65;1.13;;;33.40;59.10;;;;;;5019312;28;20112;-64
2023/03/05 05:23:46;;;;;;;1.65;0.75;;;33.30;59.00;;;;;;5023118;28;20069;-63
2023/03/05 05:26:14;;;;;;;1.73;0.80;;;33.40;58.90;;;;;;5028557;28;20687;-63
2023/03/05 05:28:43;;;;;;;3.10;1.15;;;33.30;58.20;;;;;;5028770;28;20053;-63
2023/03/05 05:31:13;;;;;;;2.53;1.00;;;33.00;58.70;;;;;;5015337;28;20034;-63
2023/03/05 05:33:41;;;;;;;2.15;1.00;;;32.80;60.20;;;;;;5009303;28;20481;-64
2023/03/05 05:36:13;;;;;;;2.90;1.20;;;32.80;60.60;;;;;;5015688;28;20032;-64
2023/03/05 05:38:40;;;;;;;3.45;1.02;;;32.80;59.20;;;;;;5027375;28;20065;-62
2023/03/05 05:41:13;;;;;;;4.38;1.50;;;32.60;58.70;;;;;;5026384;28;20029;-64
2023/03/05 05:43:41;;;;;;;4.13;1.30;;;32.30;59.70;;;;;;5027595;28;20029;-64
2023/03/05 05:46:12;;;;;;;4.32;1.40;;;32.10;59.90;;;;;;5029651;28;20033;-63
2023/03/05 05:48:39;;;;;;;3.35;1.10;;;32.20;60.90;;;;;;5028315;28;20033;-64
2023/03/05 05:51:10;;;;;;;1.80;1.08;;;32.30;60.20;;;;;;5024551;28;20032;-63
2023/03/05 05:53:38;;;;;;;2.40;1.02;;;32.20;60.70;;;;;;5031994;28;20025;-63
2023/03/05 05:56:07;;;;;;;5.38;2.08;;;32.10;60.10;;;;;;5028909;28;20029;-63
2023/03/05 05:58:35;;;;;;;6.93;2.15;;;31.90;60.70;;;;;;5030454;28;20033;-63
2023/03/05 06:01:11;;;;;;;5.80;2.10;;;31.70;60.60;;;;;;5029545;28;20026;-62
2023/03/05 06:03:38;;;;;;;4.43;1.90;;;31.60;61.30;;;;;;5028473;28;20050;-62
2023/03/05 06:06:13;;;;;;;4.22;1.67;;;31.60;61.20;;;;;;5014717;28;20022;-64
2023/03/05 06:08:41;;;;;;;2.63;1.17;;;31.70;62.20;;;;;;5026400;28;20386;-71
2023/03/05 06:11:09;;;;;;;2.17;1.20;;;32.00;62.30;;;;;;5029717;28;20389;-63
2023/03/05 06:13:36;;;;;;;1.42;0.90;;;32.10;60.80;;;;;;5028106;28;20080;-64
2023/03/05 06:16:08;;;;;;;2.75;1.02;;;32.10;60.10;;;;;;5022292;28;20152;-64
2023/03/05 06:18:36;;;;;;;2.33;1.13;;;32.10;59.90;;;;;;5025262;28;20025;-64
2023/03/05 06:21:06;;;;;;;2.90;1.30;;;32.10;60.00;;;;;;5027028;28;20029;-64
2023/03/05 06:23:35;;;;;;;4.38;1.33;;;32.10;63.70;;;;;;5028794;28;20052;-64
2023/03/05 06:26:04;;;;;;;8.23;1.10;;;31.90;69.10;;;;;;5023433;28;20064;-64
2023/03/05 06:28:32;;;;;;;3.72;1.38;;;31.70;70.30;;;;;;5027479;28;20021;-68
2023/03/05 06:31:00;;;;;;;3.53;1.17;;;31.70;72.00;;;;;;5028626;28;20032;-66
2023/03/05 06:33:28;;;;;;;6.43;1.52;;;31.50;71.90;;;;;;5027856;28;20030;-64
2023/03/05 06:35:56;;;;;;;2.80;0.93;;;31.30;72.40;;;;;;5021052;28;20025;-64
2023/03/05 06:38:23;;;;;;;5.40;1.98;;;31.20;72.50;;;;;;5020881;28;20552;-65
2023/03/05 06:40:51;;;;;;;6.93;1.27;;;31.10;73.70;;;;;;5020607;28;20513;-64
2023/03/05 06:43:19;;;;;;;5.05;1.10;;;31.00;74.10;;;;;;5015784;28;20034;-64
2023/03/05 06:45:46;;;;;;;5.32;1.65;;;30.90;75.90;;;;;;5046343;28;20053;-65
2023/03/05 06:48:14;;;;;;;4.32;1.75;;;30.80;77.80;;;;;;5043867;28;20025;-65
2023/03/05 06:50:41;;;;;;;8.02;1.33;;;30.60;78.60;;;;;;5030805;28;20056;-64
2023/03/05 06:53:09;;;;;;;5.20;0.93;;;30.60;79.90;;;;;;5024581;28;20037;-63
2023/03/05 06:55:38;;;;;;;5.35;1.10;;;30.50;81.60;;;;;;5028640;28;20126;-63
2023/03/05 06:58:07;;;;;;;5.63;1.17;;;30.40;82.20;;;;;;5025112;28;20075;-63
2023/03/05 07:00:34;;;;;;;4.95;0.90;;;30.30;84.30;;;;;;5030962;28;20022;-64
2023/03/05 07:03:01;;;;;;;6.93;1.25;;;30.30;85.80;;;;;;5031010;28;20154;-63
2023/03/05 07:05:29;;;;;;;5.45;0.90;;;30.10;86.60;;;;;;5030353;28;20541;-64
2023/03/05 07:07:56;;;;;;;4.85;1.02;;;30.00;89.40;;;;;;5029569;28;20440;-64
2023/03/05 07:10:24;;;;;;;6.30;1.23;;;29.90;90.40;;;;;;5023657;28;20525;-66
2023/03/05 07:12:52;;;;;;;4.28;1.77;;;29.80;91.30;;;;;;5031616;28;20026;-65
2023/03/05 07:15:19;;;;;;;6.47;1.50;;;29.70;92.10;;;;;;5028145;28;20030;-64
2023/03/05 07:17:47;;;;;;;4.03;1.55;;;29.60;93.00;;;;;;5030834;28;20029;-64
2023/03/05 07:20:14;;;;;;;4.25;1.40;;;29.60;93.70;;;;;;5029676;28;20025;-68
2023/03/05 07:22:42;;;;;;;5.60;1.25;;;29.50;94.10;;;;;;5029213;28;20025;-64
2023/03/05 07:25:10;;;;;;;7.57;1.27;;;29.40;94.50;;;;;;5030658;28;20398;-66
2023/03/05 07:27:38;;;;;;;5.25;1.42;;;29.40;94.70;;;;;;5027662;28;20017;-65
2023/03/05 07:30:06;;;;;;;8.57;1.02;;;29.30;95.20;;;;;;5022823;28;20472;-66
2023/03/05 07:32:35;;;;;;;3.65;0.93;;;29.20;95.80;;;;;;5024531;28;20029;-66
2023/03/05 07:35:03;;;;;;;5.80;1.45;;;29.00;96.50;;;;;;5025535;28;20025;-67
2023/03/05 07:37:30;;;;;;;4.22;1.20;;;28.90;97.30;;;;;;5015360;28;20022;-66
2023/03/05 07:39:58;;;;;;;6.32;1.30;;;28.80;98.00;;;;;;5020738;28;20037;-66
2023/03/05 07:42:25;;;;;;;7.25;1.20;;;28.60;98.60;;;;;;5019200;28;21044;-67
2023/03/05 07:44:52;;;;;;;7.97;1.25;;;28.50;99.10;;;;;;5024435;28;20121;-68
2023/03/05 07:47:22;;;;;;;5.35;1.30;;;28.40;99.90;;;;;;5024414;28;20584;-69
2023/03/05 07:49:49;;;;;;;3.53;1.20;;;28.30;99.90;;;;;;5021933;28;20033;-66
2023/03/05 07:52:17;;;;;;;4.47;1.00;;;28.10;99.90;;;;;;5026238;28;20047;-66
2023/03/05 07:54:44;;;;;;;4.93;1.27;;;28.00;99.90;;;;;;5023873;28;20153;-65
2023/03/05 07:57:12;;;;;;;4.38;1.77;;;27.90;99.90;;;;;;5019202;28;20071;-66
2023/03/05 07:59:40;;;;;;;6.63;1.38;;;27.80;99.90;;;;;;5022551;28;20033;-67
2023/03/05 08:02:10;;;;;;;2.47;0.90;;;27.70;99.90;;;;;;5022121;28;20087;-66
2023/03/05 08:04:37;;;;;;;4.03;1.10;;;27.50;99.90;;;;;;5024420;28;20045;-65
2023/03/05 08:07:05;;;;;;;5.13;1.48;;;27.40;99.90;;;;;;5023842;28;20037;-63
2023/03/05 08:09:32;;;;;;;5.20;1.58;;;27.30;99.90;;;;;;5024101;28;20022;-67
2023/03/05 08:11:59;;;;;;;5.10;1.02;;;27.30;99.90;;;;;;5023760;28;20540;-64
2023/03/05 08:14:27;;;;;;;5.30;1.08;;;27.20;99.90;;;;;;5025241;28;20043;-66
2023/03/05 08:16:55;;;;;;;7.85;1.80;;;27.00;99.90;;;;;;5023848;28;20083;-64
2023/03/05 08:19:22;;;;;;;6.75;1.05;;;27.00;99.90;;;;;;5023428;28;20064;-63
2023/03/05 08:21:50;;;;;;;5.13;1.02;;;26.80;99.90;;;;;;5025479;28;20030;-67
2023/03/05 08:24:17;;;;;;;6.35;1.83;;;26.70;99.90;;;;;;5023727;28;20025;-64
2023/03/05 08:26:45;;;;;;;5.18;1.27;;;26.60;99.90;;;;;;5022640;28;20339;-64
2023/03/05 08:29:12;;;;;;;7.15;1.13;;;26.50;99.90;;;;;;5019021;28;20505;-64
2023/03/05 08:31:44;;;;;;;8.23;1.52;;;26.40;99.90;;;;;;5022035;28;20037;-65
2023/03/05 08:34:11;;;;;;;5.70;1.20;;;26.30;99.90;;;;;;5025148;28;20409;-64
2023/03/05 08:36:39;;;;;;;9.98;1.77;;;26.20;99.90;;;;;;5024709;28;20030;-63
2023/03/05 08:39:07;;;;;;;4.43;1.08;;;26.10;99.90;;;;;;5024051;28;20097;-62
2023/03/05 08:41:35;;;;;;;5.15;1.25;;;26.00;99.90;;;;;;5023706;28;20064;-64
2023/03/05 08:44:02;;;;;;;8.23;1.60;;;25.90;99.90;;;;;;5024394;28;20036;-65
2023/03/05 08:46:30;;;;;;;6.60;1.88;;;25.90;99.90;;;;;;5022888;28;20117;-64
2023/03/05 08:48:57;;;;;;;4.85;1.23;;;25.80;99.90;;;;;;5020609;28;20025;-63
2023/03/05 08:51:25;;;;;;;5.63;1.05;;;25.70;99.90;;;;;;5021284;28;20105;-62
2023/03/05 08:53:55;;;;;;;7.90;1.67;;;25.60;99.90;;;;;;5021417;28;20774;-62
2023/03/05 08:56:22;;;;;;;3.97;1.08;;;25.60;99.90;;;;;;5022174;28;20029;-63
2023/03/05 08:58:51;;;;;;;6.38;1.30;;;25.50;99.90;;;;;;5021601;28;20061;-62
2023/03/05 09:01:19;;;;;;;8.15;2.00;;;25.30;99.90;;;;;;5023217;28;20021;-63
2023/03/05 09:03:46;;;;;;;3.47;0.98;;;25.30;99.90;;;;;;5022962;28;20045;-63
2023/03/05 09:06:14;;;;;;;12.07;1.25;;;25.20;99.90;;;;;;5022264;28;20030;-61
2023/03/05 09:08:42;;;;;;;9.25;1.20;;;25.20;99.90;;;;;;5017296;28;20037;-62
2023/03/05 09:11:11;;;;;;;8.18;1.23;;;25.10;99.90;;;;;;5024700;28;20121;-62
2023/03/05 09:13:39;;;;;;;6.30;1.67;;;25.00;99.90;;;;;;5023809;28;20512;-61
2023/03/05 09:16:10;;;;;;;6.60;1.80;;;24.90;99.90;;;;;;5022027;28;20029;-64
2023/03/05 09:18:39;;;;;;;6.00;1.35;;;24.80;99.90;;;;;;5026183;28;20026;-64
2023/03/05 09:21:08;;;;;;;10.82;1.85;;;24.80;99.90;;;;;;5024837;28;20017;-64
2023/03/05 09:23:36;;;;;;;8.63;1.48;;;24.70;99.90;;;;;;5023823;28;20116;-63
2023/03/05 09:26:09;;;;;;;5.63;1.50;;;24.70;99.90;;;;;;5025881;28;20030;-64
2023/03/05 09:28:36;;;;;;;9.77;1.80;;;24.70;99.90;;;;;;5025497;28;20029;-63
2023/03/05 09:31:05;;;;;;;5.13;1.52;;;24.60;99.90;;;;;;5024140;28;20481;-63
2023/03/05 09:33:33;;;;;;;8.13;1.40;;;24.50;99.90;;;;;;5014702;28;20103;-64
2023/03/05 09:36:01;;;;;;;3.88;1.65;;;24.50;99.90;;;;;;5020245;28;20048;-64
2023/03/05 09:38:29;;;;;;;9.45;1.60;;;24.30;99.90;;;;;;5025660;28;20026;-63
2023/03/05 09:41:28;;;;;;;6.70;1.85;;;24.30;99.90;;;;;;5024595;28;20038;-64
2023/03/05 09:44:20;;;;;;;6.82;1.50;;;24.20;99.90;;;;;;5018350;28;20041;-64
2023/03/05 09:47:09;;;;;;;8.20;2.10;;;24.20;99.90;;;;;;5026014;28;20034;-64
2023/03/05 09:49:54;;;;;;;6.97;1.38;;;24.10;99.90;;;;;;5026070;28;20095;-65
2023/03/05 09:52:33;;;;;;;5.90;1.08;;;24.00;99.90;;;;;;5027470;28;20030;-64
2023/03/05 09:55:02;;;;;;;9.43;1.75;;;23.90;99.90;;;;;;5024999;28;20037;-63
2023/03/05 09:57:41;;;;;;;5.70;1.63;;;23.90;99.90;;;;;;5025944;28;20032;-63
2023/03/05 10:00:35;;;;;;;6.22;1.55;;;23.90;99.90;;;;;;5024306;28;20091;-63
2023/03/05 10:03:09;;;;;;;6.22;1.45;;;23.80;99.90;;;;;;5022203;28;20065;-63
2023/03/05 10:05:46;;;;;;;9.00;2.15;;;23.70;99.90;;;;;;5024045;28;20033;-64
2023/03/05 10:08:16;;;;;;;5.50;1.65;;;23.60;99.90;;;;;;5026142;28;20032;-63
2023/03/05 10:10:49;;;;;;;4.68;1.30;;;23.60;99.90;;;;;;5019779;28;20204;-63
2023/03/05 10:13:26;;;;;;;5.43;1.38;;;23.60;99.90;;;;;;5025116;28;20044;-63
2023/03/05 10:16:25;;;;;;;9.13;1.90;;;23.50;99.90;;;;;;5012546;28;20025;-62
2023/03/05 10:19:11;;;;;;;4.35;1.42;;;23.40;99.90;;;;;;5022680;28;20030;-62
2023/03/05 10:22:20;;;;;;;7.65;1.50;;;23.40;99.90;;;;;;5021027;28;20041;-62
2023/03/05 10:24:53;;;;;;;5.80;1.27;;;23.30;99.90;;;;;;5024303;28;20091;-62
2023/03/05 10:27:44;;;;;;;6.88;1.38;;;23.20;99.90;;;;;;5043052;28;20029;-62
2023/03/05 10:30:20;;;;;;;4.38;1.08;;;23.00;99.90;;;;;;5026491;28;20116;-62
2023/03/05 10:33:18;;;;;;;6.32;1.80;;;22.90;99.90;;;;;;5024963;28;20045;-62
2023/03/05 10:36:10;;;;;;;8.57;2.28;;;22.80;99.90;;;;;;5027397;28;20112;-63
2023/03/05 10:38:49;;;;;;;7.75;1.58;;;22.70;99.90;;;;;;5028328;28;20437;-62
2023/03/05 10:41:20;;;;;;;18.40;4.85;;;22.60;99.90;;;;;;5023198;28;20473;-62
2023/03/05 10:43:59;;;;;;;17.30;3.97;;;22.70;99.90;;;;;;5027965;28;20041;-62
2023/03/05 10:46:34;;;;;;;8.88;3.60;;;22.80;99.90;;;;;;5009387;28;20399;-62
2023/03/05 10:49:25;;;;;;;7.35;1.83;;;22.80;99.90;;;;;;5017479;28;20040;-62
2023/03/05 10:51:55;;;;;;;5.80;1.50;;;22.80;99.90;;;;;;5025972;28;20036;-71
2023/03/05 10:54:30;;;;;;;7.43;2.78;;;22.90;99.90;;;;;;5017468;28;20080;-62
2023/03/05 10:57:21;;;;;;;11.98;1.73;;;22.90;99.90;;;;;;5015409;28;20371;-62
2023/03/05 11:00:00;;;;;;;5.53;1.40;;;22.90;99.90;;;;;;5028638;28;20558;-62
2023/03/05 11:02:27;;;;;;;8.20;1.55;;;22.80;99.90;;;;;;5030757;28;20109;-62
2023/03/05 11:04:55;;;;;;;11.70;1.90;;;22.80;99.90;;;;;;5020942;28;20132;-62
2023/03/05 11:07:25;;;;;;;15.27;2.55;;;22.70;99.90;;;;;;5026852;28;20395;-62
2023/03/05 11:10:16;;;;;;;9.05;2.80;;;22.60;99.90;;;;;;5036651;28;20544;-62
2023/03/05 11:12:44;;;;;;;17.48;3.75;;;22.60;99.90;;;;;;5036181;28;20028;-62
2023/03/05 11:15:14;;;;;;;12.88;3.35;;;22.60;99.90;;;;;;5029097;28;20494;-62
2023/03/05 11:17:51;;;;;;;11.40;2.30;;;22.60;99.90;;;;;;5021364;28;20475;-62
2023/03/05 11:20:28;;;;;;;12.35;2.50;;;22.70;99.90;;;;;;5020085;28;20021;-62
2023/03/05 11:23:03;;;;;;;7.40;2.10;;;22.80;99.90;;;;;;5025550;28;20025;-64
2023/03/05 11:25:32;;;;;;;14.30;3.42;;;22.80;99.90;;;;;;5026664;28;20119;-62
2023/03/05 11:28:02;;;;;;;7.65;2.15;;;22.90;99.90;;;;;;5015718;28;20037;-62
2023/03/05 11:30:35;;;;;;;12.85;2.50;;;23.00;99.90;;;;;;5022479;28;20128;-62
2023/03/05 11:33:18;;;;;;;5.23;1.90;;;23.10;99.90;;;;;;5019049;28;20482;-62
2023/03/05 11:35:46;;;;;;;7.40;1.52;;;23.10;99.90;;;;;;5021079;28;20478;-62
2023/03/05 11:38:26;;;;;;;9.05;1.60;;;23.10;99.90;;;;;;5027091;28;20033;-62
2023/03/05 11:40:56;;;;;;;7.28;1.23;;;23.10;99.90;;;;;;5017925;28;20034;-62
2023/03/05 11:43:26;;;;;;;5.30;1.30;;;23.10;99.90;;;;;;5025818;28;20026;-61
2023/03/05 11:46:04;;;;;;;7.97;1.88;;;23.10;99.90;;;;;;5025743;28;20538;-62
2023/03/05 11:48:43;;;;;;;5.85;1.42;;;23.00;99.90;;;;;;5021449;28;20024;-62
2023/03/05 11:51:34;;;;;;;9.23;2.58;;;23.00;99.90;;;;;;5024670;28;20052;-62
2023/03/05 11:54:08;;;;;;;8.73;1.30;;;23.00;99.90;;;;;;5020349;28;20060;-62
2023/03/05 11:56:38;;;;;;;7.93;2.30;;;22.90;99.90;;;;;;5026390;28;20677;-61
2023/03/05 11:59:22;;;;;;;11.52;2.55;;;22.90;99.90;;;;;;5028318;28;20025;-62
2023/03/05 12:01:52;;;;;;;12.32;1.50;;;22.80;99.90;;;;;;5029522;28;20095;-62
2023/03/05 12:04:21;;;;;;;8.90;2.17;;;22.80;99.90;;;;;;5029511;28;20049;-62
2023/03/05 12:06:53;;;;;;;5.97;1.40;;;22.70;99.90;;;;;;5017112;28;20091;-62
2023/03/05 12:09:42;;;;;;;13.23;2.30;;;22.70;99.90;;;;;;5030133;28;20057;-62
2023/03/05 12:12:25;;;;;;;8.75;1.75;;;22.70;99.90;;;;;;5028333;28;20087;-61
2023/03/05 12:15:12;;;;;;;15.95;2.20;;;22.70;99.90;;;;;;5029425;28;20130;-61
2023/03/05 12:18:10;;;;;;;6.50;1.55;;;22.70;99.90;;;;;;5028146;28;20025;-62
2023/03/05 12:20:37;;;;;;;11.50;1.55;;;22.60;99.90;;;;;;5028801;28;20030;-64
2023/03/05 12:23:04;;;;;;;14.05;1.60;;;22.50;99.90;;;;;;5028901;28;20482;-62
2023/03/05 12:25:46;;;;;;;9.73;1.65;;;22.60;99.90;;;;;;5028323;28;20564;-62
2023/03/05 12:28:16;;;;;;;9.15;2.08;;;22.60;99.90;;;;;;5023454;28;20064;-62
2023/03/05 12:30:44;;;;;;;7.25;1.60;;;22.60;99.90;;;;;;5029203;28;20091;-62
2023/03/05 12:33:32;;;;;;;8.52;1.63;;;22.70;99.90;;;;;;5025559;28;20032;-62
2023/03/05 12:36:21;;;;;;;7.75;1.50;;;22.60;99.90;;;;;;5028517;28;20025;-62
2023/03/05 12:38:53;;;;;;;8.55;1.35;;;22.60;99.90;;;;;;5028632;28;20036;-61
2023/03/05 12:41:23;;;;;;;6.18;1.70;;;22.60;99.90;;;;;;5029799;28;20112;-62
2023/03/05 12:44:06;;;;;;;7.53;2.00;;;22.60;99.90;;;;;;5012922;28;20109;-63
2023/03/05 12:46:36;;;;;;;6.30;1.60;;;22.50;99.90;;;;;;5012783;28;20033;-62
2023/03/05 12:49:26;;;;;;;8.15;2.95;;;22.40;99.90;;;;;;5029407;28;20115;-62
2023/03/05 12:51:58;;;;;;;6.68;2.28;;;22.30;99.90;;;;;;5029691;28;20034;-63
2023/03/05 12:54:35;;;;;;;13.82;1.83;;;22.30;99.90;;;;;;5025748;28;20026;-63
2023/03/05 12:57:22;;;;;;;8.07;2.80;;;22.40;99.90;;;;;;5023970;28;20104;-62
2023/03/05 13:00:11;;;;;;;13.40;2.47;;;22.30;99.90;;;;;;5027936;28;20030;-63
2023/03/05 13:02:45;;;;;;;6.60;1.85;;;22.30;99.90;;;;;;5027684;28;20105;-63
2023/03/05 13:05:36;;;;;;;9.43;2.17;;;22.40;99.90;;;;;;5028037;28;20462;-62